createdAt,value
2018-09-18T00:00:20.015Z,0.00
2018-09-18T00:01:20.017Z,0.00
2018-09-18T00:02:20.015Z,0.00
2018-09-18T00:03:20.012Z,0.00
2018-09-18T00:04:20.010Z,0.00
2018-09-18T00:05:20.004Z,0.00
2018-09-18T00:06:20.007Z,0.00
2018-09-18T00:07:20.004Z,0.00
2018-09-18T00:08:20.004Z,0.00
2018-09-18T00:09:19.996Z,0.00
2018-09-18T00:10:19.994Z,0.00
2018-09-18T00:11:19.993Z,0.00
2018-09-18T00:12:19.991Z,0.00
2018-09-18T00:13:19.992Z,0.00
2018-09-18T00:14:19.989Z,0.00
2018-09-18T00:15:19.988Z,0.00
2018-09-18T00:16:19.987Z,0.00
2018-09-18T00:17:19.980Z,0.00
2018-09-18T00:18:19.977Z,0.00
2018-09-18T00:19:19.976Z,0.00
2018-09-18T00:20:19.977Z,0.00
2018-09-18T00:21:19.977Z,0.00
2018-09-18T00:22:19.975Z,0.00
2018-09-18T00:23:19.970Z,0.00
2018-09-18T00:24:19.966Z,0.00
2018-09-18T00:25:19.968Z,0.00
2018-09-18T00:26:19.968Z,0.00
2018-09-18T00:27:19.964Z,0.00
2018-09-18T00:28:19.961Z,0.00
2018-09-18T00:29:19.955Z,0.00
2018-09-18T00:30:19.954Z,0.00
2018-09-18T00:31:19.952Z,0.00
2018-09-18T00:32:19.952Z,0.00
2018-09-18T00:33:19.952Z,0.00
2018-09-18T00:34:19.956Z,0.00
2018-09-18T00:35:19.947Z,0.00
2018-09-18T00:36:19.947Z,0.00
2018-09-18T00:37:19.940Z,0.00
2018-09-18T00:38:19.936Z,0.00
2018-09-18T00:39:19.941Z,0.00
2018-09-18T00:40:19.939Z,0.00
2018-09-18T00:41:19.931Z,0.00
2018-09-18T00:42:19.930Z,0.00
2018-09-18T00:43:19.927Z,0.00
2018-09-18T00:44:19.925Z,0.00
2018-09-18T00:45:19.927Z,0.00
2018-09-18T00:46:19.928Z,0.00
2018-09-18T00:47:19.924Z,0.00
2018-09-18T00:48:19.921Z,0.00
2018-09-18T00:49:19.913Z,0.00
2018-09-18T00:50:19.912Z,0.00
2018-09-18T00:51:19.911Z,0.00
2018-09-18T00:52:19.910Z,0.00
2018-09-18T00:53:19.911Z,0.00
2018-09-18T00:54:19.959Z,0.00
2018-09-18T00:55:19.905Z,0.00
2018-09-18T00:56:19.900Z,0.00
2018-09-18T00:57:19.908Z,0.00
2018-09-18T00:58:19.901Z,0.00
2018-09-18T00:59:19.898Z,0.00
2018-09-18T01:00:19.896Z,0.00
2018-09-18T01:01:19.890Z,0.00
2018-09-18T01:02:19.887Z,0.00
2018-09-18T01:03:19.885Z,0.00
2018-09-18T01:04:19.884Z,0.00
2018-09-18T01:05:19.885Z,0.00
2018-09-18T01:06:19.883Z,0.00
2018-09-18T01:07:19.882Z,0.00
2018-09-18T01:08:19.880Z,0.00
2018-09-18T01:09:19.876Z,0.00
2018-09-18T01:10:19.872Z,0.00
2018-09-18T01:11:19.877Z,0.00
2018-09-18T01:12:19.872Z,0.00
2018-09-18T01:13:19.865Z,0.00
2018-09-18T01:14:19.861Z,0.00
2018-09-18T01:15:19.863Z,0.00
2018-09-18T01:16:19.858Z,0.00
2018-09-18T01:17:19.860Z,0.00
2018-09-18T01:18:19.857Z,0.00
2018-09-18T01:19:19.861Z,0.00
2018-09-18T01:20:19.855Z,0.00
2018-09-18T01:21:19.849Z,0.00
2018-09-18T01:22:19.845Z,0.00
2018-09-18T01:23:19.845Z,0.00
2018-09-18T01:24:19.846Z,0.00
2018-09-18T01:25:19.847Z,0.00
2018-09-18T01:26:19.842Z,0.00
2018-09-18T01:27:19.836Z,0.00
2018-09-18T01:28:19.834Z,0.00
2018-09-18T01:29:19.836Z,0.00
2018-09-18T01:30:19.833Z,0.00
2018-09-18T01:31:19.832Z,0.00
2018-09-18T01:32:19.831Z,0.00
2018-09-18T01:33:19.823Z,0.00
2018-09-18T01:34:19.820Z,0.00
2018-09-18T01:35:19.820Z,0.00
2018-09-18T01:36:19.818Z,0.00
2018-09-18T01:37:19.820Z,0.00
2018-09-18T01:38:19.823Z,0.00
2018-09-18T01:39:19.815Z,0.00
2018-09-18T01:40:19.813Z,0.00
2018-09-18T01:41:19.807Z,0.00
2018-09-18T01:42:19.805Z,0.00
2018-09-18T01:43:19.808Z,0.00
2018-09-18T01:44:19.805Z,0.00
2018-09-18T01:45:19.799Z,0.00
2018-09-18T01:46:19.796Z,0.00
2018-09-18T01:47:19.795Z,0.00
2018-09-18T01:48:19.793Z,0.00
2018-09-18T01:49:19.807Z,0.00
2018-09-18T01:50:19.793Z,0.00
2018-09-18T01:51:19.791Z,0.00
2018-09-18T01:52:19.789Z,0.00
2018-09-18T01:53:19.781Z,0.00
2018-09-18T01:54:19.790Z,0.00
2018-09-18T01:55:19.781Z,0.00
2018-09-18T01:56:19.778Z,0.00
2018-09-18T01:57:19.778Z,0.00
2018-09-18T01:58:19.775Z,0.00
2018-09-18T01:59:19.772Z,0.00
2018-09-18T02:00:19.768Z,0.00
2018-09-18T02:01:19.772Z,0.00
2018-09-18T02:02:19.768Z,0.00
2018-09-18T02:03:19.769Z,0.00
2018-09-18T02:04:19.764Z,0.00
2018-09-18T02:05:19.756Z,0.00
2018-09-18T02:06:19.756Z,0.00
2018-09-18T02:07:19.754Z,0.00
2018-09-18T02:08:19.751Z,0.00
2018-09-18T02:09:19.753Z,0.00
2018-09-18T02:10:19.751Z,0.00
2018-09-18T02:11:19.748Z,0.00
2018-09-18T02:12:19.748Z,0.00
2018-09-18T02:13:19.744Z,0.00
2018-09-18T02:14:19.738Z,0.00
2018-09-18T02:15:19.741Z,0.00
2018-09-18T02:16:19.738Z,0.00
2018-09-18T02:17:19.734Z,0.00
2018-09-18T02:18:19.730Z,0.00
2018-09-18T02:19:19.727Z,0.00
2018-09-18T02:20:19.726Z,0.00
2018-09-18T02:21:19.729Z,0.00
2018-09-18T02:22:19.727Z,0.00
2018-09-18T02:23:19.723Z,0.00
2018-09-18T02:24:19.721Z,0.00
2018-09-18T02:25:19.714Z,0.00
2018-09-18T02:26:19.712Z,0.00
2018-09-18T02:27:19.710Z,0.00
2018-09-18T02:28:19.709Z,0.00
2018-09-18T02:29:19.711Z,0.00
2018-09-18T02:30:19.709Z,0.00
2018-09-18T02:31:19.702Z,0.00
2018-09-18T02:32:19.700Z,0.00
2018-09-18T02:33:19.703Z,0.00
2018-09-18T02:34:19.699Z,0.00
2018-09-18T02:35:19.697Z,0.00
2018-09-18T02:36:19.696Z,0.00
2018-09-18T02:37:19.688Z,0.00
2018-09-18T02:38:19.687Z,0.00
2018-09-18T02:39:19.685Z,0.00
2018-09-18T02:40:19.683Z,0.00
2018-09-18T02:41:19.685Z,0.00
2018-09-18T02:42:19.683Z,0.00
2018-09-18T02:43:19.681Z,0.00
2018-09-18T02:44:19.680Z,0.00
2018-09-18T02:45:19.674Z,0.00
2018-09-18T02:46:19.669Z,0.00
2018-09-18T02:47:19.718Z,0.00
2018-09-18T02:48:19.671Z,0.00
2018-09-18T02:49:19.663Z,0.00
2018-09-18T02:50:19.662Z,0.00
2018-09-18T02:51:19.659Z,0.00
2018-09-18T02:52:19.657Z,0.00
2018-09-18T02:53:19.659Z,0.00
2018-09-18T02:54:19.658Z,0.00
2018-09-18T02:55:19.655Z,0.00
2018-09-18T02:56:19.654Z,0.00
2018-09-18T02:57:19.646Z,0.00
2018-09-18T02:58:19.644Z,0.00
2018-09-18T02:59:19.643Z,0.00
2018-09-18T03:00:19.641Z,0.00
2018-09-18T03:01:19.643Z,0.00
2018-09-18T03:02:19.642Z,0.00
2018-09-18T03:03:19.635Z,0.00
2018-09-18T03:04:19.633Z,0.00
2018-09-18T03:05:19.635Z,0.00
2018-09-18T03:06:19.634Z,0.00
2018-09-18T03:07:19.635Z,0.00
2018-09-18T03:08:19.638Z,0.00
2018-09-18T03:09:19.625Z,0.00
2018-09-18T03:10:19.620Z,0.00
2018-09-18T03:11:19.672Z,0.00
2018-09-18T03:12:19.615Z,0.00
2018-09-18T03:13:19.618Z,0.00
2018-09-18T03:14:19.617Z,0.00
2018-09-18T03:15:19.616Z,0.00
2018-09-18T03:16:19.612Z,0.00
2018-09-18T03:17:19.606Z,0.00
2018-09-18T03:18:19.607Z,0.00
2018-09-18T03:19:19.607Z,0.00
2018-09-18T03:20:19.604Z,0.00
2018-09-18T03:21:19.599Z,0.00
2018-09-18T03:22:19.595Z,0.00
2018-09-18T03:23:19.594Z,0.00
2018-09-18T03:24:19.590Z,0.00
2018-09-18T03:25:19.592Z,0.00
2018-09-18T03:26:19.590Z,0.00
2018-09-18T03:27:19.592Z,0.00
2018-09-18T03:28:19.584Z,0.00
2018-09-18T03:29:19.587Z,0.00
2018-09-18T03:30:19.582Z,0.00
2018-09-18T03:31:19.579Z,0.00
2018-09-18T03:32:19.583Z,0.00
2018-09-18T03:33:19.570Z,0.00
2018-09-18T03:34:19.568Z,0.00
2018-09-18T03:35:19.574Z,0.00
2018-09-18T03:36:19.571Z,0.00
2018-09-18T03:37:19.561Z,0.00
2018-09-18T03:38:19.562Z,0.00
2018-09-18T03:39:19.558Z,0.00
2018-09-18T03:40:19.556Z,0.00
2018-09-18T03:41:19.559Z,0.00
2018-09-18T03:42:19.557Z,0.00
2018-09-18T03:43:19.556Z,0.00
2018-09-18T03:44:19.553Z,0.00
2018-09-18T03:45:19.546Z,0.00
2018-09-18T03:46:19.543Z,0.00
2018-09-18T03:47:19.540Z,0.00
2018-09-18T03:48:19.540Z,0.00
2018-09-18T03:49:19.540Z,0.00
2018-09-18T03:50:19.539Z,0.00
2018-09-18T03:51:19.534Z,0.00
2018-09-18T03:52:19.530Z,0.00
2018-09-18T03:53:19.532Z,0.00
2018-09-18T03:54:19.533Z,0.00
2018-09-18T03:55:19.531Z,0.00
2018-09-18T03:56:19.527Z,0.00
2018-09-18T03:57:19.518Z,0.00
2018-09-18T03:58:19.517Z,0.00
2018-09-18T03:59:19.520Z,0.00
2018-09-18T04:00:19.513Z,0.00
2018-09-18T04:01:19.515Z,0.00
2018-09-18T04:02:19.513Z,0.00
2018-09-18T04:03:19.511Z,0.00
2018-09-18T04:04:19.508Z,0.00
2018-09-18T04:05:19.503Z,0.00
2018-09-18T04:06:19.498Z,0.00
2018-09-18T04:07:19.502Z,0.00
2018-09-18T04:08:19.500Z,0.00
2018-09-18T04:09:19.493Z,0.00
2018-09-18T04:10:19.491Z,0.00
2018-09-18T04:11:19.489Z,0.00
2018-09-18T04:12:19.488Z,0.00
2018-09-18T04:13:19.489Z,0.00
2018-09-18T04:14:19.486Z,0.00
2018-09-18T04:15:19.485Z,0.00
2018-09-18T04:16:19.483Z,0.00
2018-09-18T04:17:19.504Z,0.00
2018-09-18T04:18:19.472Z,0.00
2018-09-18T04:19:19.470Z,0.00
2018-09-18T04:20:19.469Z,0.00
2018-09-18T04:21:19.471Z,0.00
2018-09-18T04:22:19.469Z,0.00
2018-09-18T04:23:19.462Z,0.00
2018-09-18T04:24:19.461Z,0.00
2018-09-18T04:25:19.461Z,0.00
2018-09-18T04:26:19.460Z,0.00
2018-09-18T04:27:19.458Z,0.00
2018-09-18T04:28:19.457Z,0.00
2018-09-18T04:29:19.451Z,0.00
2018-09-18T04:30:19.447Z,0.00
2018-09-18T04:31:19.444Z,0.00
2018-09-18T04:32:19.442Z,0.00
2018-09-18T04:33:19.443Z,0.00
2018-09-18T04:34:19.454Z,0.00
2018-09-18T04:35:19.443Z,0.00
2018-09-18T04:36:19.439Z,0.00
2018-09-18T04:37:19.431Z,0.00
2018-09-18T04:38:19.429Z,0.00
2018-09-18T04:39:19.432Z,0.00
2018-09-18T04:40:19.431Z,4.00
2018-09-18T04:41:19.421Z,4.00
2018-09-18T04:42:19.420Z,0.00
2018-09-18T04:43:19.418Z,4.00
2018-09-18T04:44:19.417Z,4.00
2018-09-18T04:45:19.417Z,4.00
2018-09-18T04:46:19.416Z,4.00
2018-09-18T04:47:19.414Z,8.00
2018-09-18T04:48:19.411Z,8.00
2018-09-18T04:49:19.409Z,8.00
2018-09-18T04:50:19.402Z,12.00
2018-09-18T04:51:19.400Z,16.00
2018-09-18T04:52:19.398Z,20.00
2018-09-18T04:53:19.399Z,20.00
2018-09-18T04:54:19.399Z,28.00
2018-09-18T04:55:19.392Z,28.00
2018-09-18T04:56:19.389Z,32.00
2018-09-18T04:57:19.391Z,40.00
2018-09-18T04:58:19.391Z,48.00
2018-09-18T04:59:19.387Z,56.00
2018-09-18T05:00:19.385Z,64.00
2018-09-18T05:01:19.377Z,72.00
2018-09-18T05:02:19.375Z,80.00
2018-09-18T05:03:19.373Z,88.00
2018-09-18T05:04:19.371Z,100.00
2018-09-18T05:05:19.372Z,116.00
2018-09-18T05:06:19.370Z,128.00
2018-09-18T05:07:19.372Z,140.00
2018-09-18T05:08:19.367Z,156.00
2018-09-18T05:09:19.416Z,172.00
2018-09-18T05:10:19.358Z,184.00
2018-09-18T05:11:19.360Z,204.00
2018-09-18T05:12:19.358Z,224.00
2018-09-18T05:13:19.350Z,244.00
2018-09-18T05:14:19.349Z,268.00
2018-09-18T05:15:19.345Z,296.00
2018-09-18T05:16:19.343Z,324.00
2018-09-18T05:17:19.345Z,352.00
2018-09-18T05:18:19.342Z,384.00
2018-09-18T05:19:19.340Z,420.00
2018-09-18T05:20:19.338Z,456.00
2018-09-18T05:21:19.332Z,496.00
2018-09-18T05:22:19.329Z,536.00
2018-09-18T05:23:19.328Z,576.00
2018-09-18T05:24:19.326Z,624.00
2018-09-18T05:25:19.328Z,676.00
2018-09-18T05:26:19.325Z,732.00
2018-09-18T05:27:19.319Z,792.00
2018-09-18T05:28:19.317Z,844.00
2018-09-18T05:29:19.319Z,896.00
2018-09-18T05:30:19.316Z,940.00
2018-09-18T05:31:19.315Z,992.00
2018-09-18T05:32:19.313Z,1040.00
2018-09-18T05:33:19.305Z,1100.00
2018-09-18T05:34:19.305Z,1176.00
2018-09-18T05:35:19.301Z,1268.00
2018-09-18T05:36:19.300Z,1388.00
2018-09-18T05:37:19.302Z,1720.00
2018-09-18T05:38:19.300Z,2824.00
2018-09-18T05:39:19.298Z,3648.00
2018-09-18T05:40:19.294Z,4496.00
2018-09-18T05:41:19.287Z,5536.00
2018-09-18T05:42:19.287Z,5980.00
2018-09-18T05:43:19.290Z,6340.00
2018-09-18T05:44:19.287Z,6752.00
2018-09-18T05:45:19.280Z,7080.00
2018-09-18T05:46:19.280Z,7468.00
2018-09-18T05:47:19.277Z,7824.00
2018-09-18T05:48:19.276Z,8184.00
2018-09-18T05:49:19.279Z,8624.00
2018-09-18T05:50:19.277Z,9020.00
2018-09-18T05:51:19.280Z,9396.00
2018-09-18T05:52:19.277Z,9668.00
2018-09-18T05:53:19.270Z,10016.00
2018-09-18T05:54:19.270Z,10288.00
2018-09-18T05:55:19.269Z,10752.00
2018-09-18T05:56:19.271Z,11040.00
2018-09-18T05:57:19.275Z,11200.00
2018-09-18T05:58:19.273Z,11240.00
2018-09-18T05:59:19.269Z,11448.00
2018-09-18T06:00:19.270Z,11684.00
2018-09-18T06:01:19.275Z,11892.00
2018-09-18T06:02:19.310Z,12288.00
2018-09-18T06:03:19.277Z,12480.00
2018-09-18T06:04:19.280Z,12704.00
2018-09-18T06:05:19.274Z,13024.00
2018-09-18T06:06:19.276Z,13280.00
2018-09-18T06:07:19.277Z,13536.00
2018-09-18T06:08:19.279Z,13600.00
2018-09-18T06:09:19.284Z,13856.00
2018-09-18T06:10:19.286Z,14208.00
2018-09-18T06:11:19.289Z,14432.00
2018-09-18T06:12:19.292Z,14720.00
2018-09-18T06:13:19.287Z,15168.00
2018-09-18T06:14:19.290Z,15296.00
2018-09-18T06:15:19.295Z,15616.00
2018-09-18T06:16:19.298Z,15872.00
2018-09-18T06:17:19.296Z,16224.00
2018-09-18T06:18:19.299Z,16384.00
2018-09-18T06:19:19.344Z,16736.00
2018-09-18T06:20:19.304Z,17152.00
2018-09-18T06:21:19.314Z,17472.00
2018-09-18T06:22:19.315Z,17760.00
2018-09-18T06:23:19.318Z,18112.00
2018-09-18T06:24:19.322Z,18368.00
2018-09-18T06:25:19.319Z,18880.00
2018-09-18T06:26:19.445Z,19200.00
2018-09-18T06:27:19.325Z,19264.00
2018-09-18T06:28:19.329Z,19360.00
2018-09-18T06:29:19.335Z,19520.00
2018-09-18T06:30:19.341Z,19808.00
2018-09-18T06:31:19.340Z,20032.00
2018-09-18T06:32:19.343Z,20352.00
2018-09-18T06:33:19.350Z,20544.00
2018-09-18T06:34:19.355Z,20704.00
2018-09-18T06:35:19.360Z,20800.00
2018-09-18T06:36:19.364Z,20896.00
2018-09-18T06:37:19.364Z,21216.00
2018-09-18T06:38:19.367Z,21312.00
2018-09-18T06:39:19.373Z,21504.00
2018-09-18T06:40:19.378Z,21760.00
2018-09-18T06:41:19.386Z,21824.00
2018-09-18T06:42:19.441Z,21952.00
2018-09-18T06:43:19.396Z,21952.00
2018-09-18T06:44:19.401Z,22080.00
2018-09-18T06:45:19.402Z,22240.00
2018-09-18T06:46:19.406Z,22400.00
2018-09-18T06:47:19.415Z,22656.00
2018-09-18T06:48:19.421Z,22592.00
2018-09-18T06:49:19.424Z,22912.00
2018-09-18T06:50:19.428Z,23072.00
2018-09-18T06:51:19.430Z,23456.00
2018-09-18T06:52:19.435Z,23680.00
2018-09-18T06:53:19.445Z,23712.00
2018-09-18T06:54:19.466Z,23904.00
2018-09-18T06:55:19.457Z,24064.00
2018-09-18T06:56:19.461Z,24352.00
2018-09-18T06:57:19.463Z,24480.00
2018-09-18T06:58:19.467Z,24704.00
2018-09-18T06:59:19.474Z,24928.00
2018-09-18T07:00:19.480Z,25152.00
2018-09-18T07:01:19.493Z,25344.00
2018-09-18T07:02:19.496Z,25472.00
2018-09-18T07:03:19.497Z,25600.00
2018-09-18T07:04:19.504Z,25728.00
2018-09-18T07:05:19.514Z,25824.00
2018-09-18T07:06:19.524Z,26112.00
2018-09-18T07:07:19.525Z,26112.00
2018-09-18T07:08:19.532Z,26400.00
2018-09-18T07:09:19.533Z,26560.00
2018-09-18T07:10:19.540Z,26528.00
2018-09-18T07:11:19.553Z,26720.00
2018-09-18T07:12:19.559Z,26784.00
2018-09-18T07:13:19.565Z,26912.00
2018-09-18T07:14:19.618Z,27200.00
2018-09-18T07:15:19.579Z,27456.00
2018-09-18T07:16:19.586Z,27424.00
2018-09-18T07:17:19.586Z,27680.00
2018-09-18T07:18:19.594Z,27776.00
2018-09-18T07:19:19.607Z,28096.00
2018-09-18T07:20:19.614Z,27968.00
2018-09-18T07:21:19.619Z,28224.00
2018-09-18T07:22:19.624Z,28224.00
2018-09-18T07:23:19.631Z,28480.00
2018-09-18T07:24:19.638Z,28672.00
2018-09-18T07:25:19.653Z,28736.00
2018-09-18T07:26:19.658Z,28640.00
2018-09-18T07:27:19.665Z,28512.00
2018-09-18T07:28:19.673Z,28832.00
2018-09-18T07:29:19.708Z,29024.00
2018-09-18T07:30:19.684Z,29056.00
2018-09-18T07:31:19.692Z,29152.00
2018-09-18T07:32:19.701Z,29408.00
2018-09-18T07:33:19.712Z,29440.00
2018-09-18T07:34:19.721Z,29696.00
2018-09-18T07:35:19.725Z,30016.00
2018-09-18T07:36:19.735Z,30112.00
2018-09-18T07:37:19.745Z,30208.00
2018-09-18T07:38:19.753Z,30400.00
2018-09-18T07:39:19.761Z,30304.00
2018-09-18T07:40:19.770Z,30432.00
2018-09-18T07:41:19.772Z,30784.00
2018-09-18T07:42:19.783Z,30912.00
2018-09-18T07:43:19.790Z,31072.00
2018-09-18T07:44:19.800Z,31200.00
2018-09-18T07:45:19.812Z,31552.00
2018-09-18T07:46:19.820Z,31424.00
2018-09-18T07:47:19.881Z,31616.00
2018-09-18T07:48:19.840Z,31872.00
2018-09-18T07:49:19.844Z,32096.00
2018-09-18T07:50:19.853Z,32192.00
2018-09-18T07:51:19.867Z,32352.00
2018-09-18T07:52:19.931Z,32224.00
2018-09-18T07:53:19.881Z,32192.00
2018-09-18T07:54:19.889Z,32352.00
2018-09-18T07:55:19.902Z,32512.00
2018-09-18T07:56:19.911Z,32640.00
2018-09-18T07:57:19.924Z,32928.00
2018-09-18T07:58:19.931Z,19680.00
2018-09-18T07:59:19.943Z,19712.00
2018-09-18T08:00:19.953Z,19872.00
2018-09-18T08:01:20.057Z,20128.00
2018-09-18T08:02:19.968Z,20320.00
2018-09-18T08:03:19.986Z,20448.00
2018-09-18T08:04:19.988Z,20896.00
2018-09-18T08:05:20.002Z,21248.00
2018-09-18T08:06:20.013Z,21632.00
2018-09-18T08:07:20.018Z,21824.00
2018-09-18T08:08:20.028Z,22016.00
2018-09-18T08:09:20.042Z,22208.00
2018-09-18T08:10:20.057Z,22720.00
2018-09-18T08:11:20.063Z,23584.00
2018-09-18T08:12:20.072Z,25152.00
2018-09-18T08:13:20.078Z,26944.00
2018-09-18T08:14:20.090Z,28960.00
2018-09-18T08:15:20.099Z,32160.00
2018-09-18T08:16:20.111Z,36416.00
2018-09-18T08:17:20.125Z,39520.00
2018-09-18T08:18:20.135Z,40320.00
2018-09-18T08:19:20.243Z,40608.00
2018-09-18T08:20:20.158Z,41696.00
2018-09-18T08:21:20.163Z,42336.00
2018-09-18T08:22:20.173Z,43808.00
2018-09-18T08:23:20.190Z,45536.00
2018-09-18T08:24:20.200Z,47136.00
2018-09-18T08:25:20.324Z,49536.00
2018-09-18T08:26:20.219Z,52224.00
2018-09-18T08:27:20.227Z,54592.00
2018-09-18T08:28:20.239Z,57088.00
2018-09-18T08:29:20.255Z,58240.00
2018-09-18T08:30:20.268Z,61856.00
2018-09-18T08:31:20.278Z,61536.00
2018-09-18T08:32:20.288Z,61152.00
2018-09-18T08:33:20.295Z,63200.00
2018-09-18T08:34:20.310Z,68864.00
2018-09-18T08:35:20.318Z,70944.00
2018-09-18T08:36:20.331Z,74080.00
2018-09-18T08:37:20.347Z,76480.00
2018-09-18T08:38:20.359Z,79488.00
2018-09-18T08:39:20.371Z,79808.00
2018-09-18T08:40:20.379Z,75904.00
2018-09-18T08:41:20.414Z,77376.00
2018-09-18T08:42:20.418Z,76864.00
2018-09-18T08:43:20.419Z,64960.00
2018-09-18T08:44:20.431Z,58336.00
2018-09-18T08:45:20.438Z,54720.00
2018-09-18T08:46:20.465Z,50208.00
2018-09-18T08:47:20.464Z,46016.00
2018-09-18T08:48:20.476Z,45152.00
2018-09-18T08:49:20.494Z,42880.00
2018-09-18T08:50:20.509Z,41408.00
2018-09-18T08:51:20.518Z,38688.00
2018-09-18T08:52:20.555Z,36960.00
2018-09-18T08:53:20.565Z,36672.00
2018-09-18T08:54:20.568Z,36608.00
2018-09-18T08:55:20.569Z,34144.00
2018-09-18T08:56:20.606Z,32896.00
2018-09-18T08:57:20.611Z,31104.00
2018-09-18T08:58:20.604Z,30048.00
2018-09-18T08:59:20.618Z,30464.00
2018-09-18T09:00:20.631Z,30368.00
2018-09-18T09:01:20.648Z,29152.00
2018-09-18T09:02:20.662Z,28448.00
2018-09-18T09:03:20.676Z,28064.00
2018-09-18T09:04:20.693Z,27520.00
2018-09-18T09:05:20.765Z,27392.00
2018-09-18T09:06:20.791Z,27520.00
2018-09-18T09:07:20.752Z,27264.00
2018-09-18T09:08:20.804Z,26592.00
2018-09-18T09:09:20.869Z,26144.00
2018-09-18T09:10:20.844Z,25952.00
2018-09-18T09:11:20.805Z,26112.00
2018-09-18T09:12:20.797Z,25952.00
2018-09-18T09:13:20.825Z,25728.00
2018-09-18T09:14:20.901Z,25696.00
2018-09-18T09:15:20.861Z,25696.00
2018-09-18T09:16:20.861Z,25728.00
2018-09-18T09:17:20.875Z,25760.00
2018-09-18T09:18:20.994Z,25696.00
2018-09-18T09:19:20.923Z,25664.00
2018-09-18T09:20:20.917Z,25600.00
2018-09-18T09:21:21.035Z,25408.00
2018-09-18T09:22:21.045Z,25216.00
2018-09-18T09:23:20.968Z,24992.00
2018-09-18T09:24:21.007Z,24768.00
2018-09-18T09:25:20.990Z,24640.00
2018-09-18T09:26:21.044Z,24576.00
2018-09-18T09:27:21.056Z,24640.00
2018-09-18T09:28:21.042Z,24576.00
2018-09-18T09:29:21.052Z,24576.00
2018-09-18T09:30:21.075Z,24608.00
2018-09-18T09:31:21.087Z,24576.00
2018-09-18T09:32:21.137Z,24544.00
2018-09-18T09:33:21.137Z,24512.00
2018-09-18T09:34:21.159Z,24448.00
2018-09-18T09:35:21.173Z,24032.00
2018-09-18T09:36:21.165Z,23296.00
2018-09-18T09:37:21.355Z,22464.00
2018-09-18T09:38:21.190Z,21920.00
2018-09-18T09:39:21.206Z,21760.00
2018-09-18T09:40:21.222Z,21760.00
2018-09-18T09:41:21.241Z,21824.00
2018-09-18T09:42:21.256Z,21760.00
2018-09-18T09:43:21.267Z,21920.00
2018-09-18T09:44:21.284Z,21952.00
2018-09-18T09:45:21.303Z,22112.00
2018-09-18T09:46:21.318Z,22208.00
2018-09-18T09:47:21.335Z,22368.00
2018-09-18T09:48:21.351Z,22528.00
2018-09-18T09:49:21.361Z,22528.00
2018-09-18T09:50:21.377Z,22560.00
2018-09-18T09:51:21.544Z,22688.00
2018-09-18T09:52:21.410Z,22784.00
2018-09-18T09:53:21.426Z,23008.00
2018-09-18T09:54:21.442Z,23200.00
2018-09-18T09:55:21.461Z,23264.00
2018-09-18T09:56:21.475Z,23488.00
2018-09-18T09:57:21.486Z,23680.00
2018-09-18T09:58:21.501Z,23840.00
2018-09-18T09:59:21.522Z,24096.00
2018-09-18T10:00:21.540Z,24384.00
2018-09-18T10:01:21.548Z,24608.00
2018-09-18T10:02:21.611Z,24768.00
2018-09-18T10:03:21.582Z,24928.00
2018-09-18T10:04:21.597Z,25408.00
2018-09-18T10:05:21.617Z,26144.00
2018-09-18T10:06:21.635Z,26592.00
2018-09-18T10:07:21.650Z,26592.00
2018-09-18T10:08:21.667Z,26176.00
2018-09-18T10:09:21.678Z,26272.00
2018-09-18T10:10:21.748Z,26400.00
2018-09-18T10:11:21.710Z,26528.00
2018-09-18T10:12:21.728Z,26592.00
2018-09-18T10:13:21.759Z,26464.00
2018-09-18T10:14:21.768Z,26592.00
2018-09-18T10:15:21.775Z,26720.00
2018-09-18T10:16:21.792Z,26816.00
2018-09-18T10:17:21.813Z,26912.00
2018-09-18T10:18:21.829Z,26528.00
2018-09-18T10:19:21.844Z,26688.00
2018-09-18T10:20:21.860Z,27072.00
2018-09-18T10:21:21.872Z,27200.00
2018-09-18T10:22:21.887Z,27392.00
2018-09-18T10:23:21.911Z,26976.00
2018-09-18T10:24:21.927Z,27232.00
2018-09-18T10:25:21.960Z,27232.00
2018-09-18T10:26:22.045Z,27136.00
2018-09-18T10:27:21.994Z,26880.00
2018-09-18T10:28:22.010Z,27136.00
2018-09-18T10:29:22.000Z,27200.00
2018-09-18T10:30:22.013Z,27008.00
2018-09-18T10:31:22.033Z,27200.00
2018-09-18T10:32:22.050Z,27104.00
2018-09-18T10:33:22.060Z,27136.00
2018-09-18T10:34:22.075Z,26976.00
2018-09-18T10:35:22.119Z,27072.00
2018-09-18T10:36:22.128Z,26976.00
2018-09-18T10:37:22.127Z,26752.00
2018-09-18T10:38:22.155Z,26688.00
2018-09-18T10:39:22.159Z,26688.00
2018-09-18T10:40:22.176Z,26208.00
2018-09-18T10:41:22.321Z,26144.00
2018-09-18T10:42:22.201Z,25984.00
2018-09-18T10:43:22.218Z,26144.00
2018-09-18T10:44:22.262Z,25568.00
2018-09-18T10:45:22.278Z,25568.00
2018-09-18T10:46:22.281Z,25728.00
2018-09-18T10:47:22.306Z,25632.00
2018-09-18T10:48:22.315Z,25472.00
2018-09-18T10:49:22.384Z,25024.00
2018-09-18T10:50:22.332Z,24960.00
2018-09-18T10:51:22.347Z,24800.00
2018-09-18T10:52:22.408Z,24928.00
2018-09-18T10:53:22.373Z,24768.00
2018-09-18T10:54:22.389Z,24672.00
2018-09-18T10:55:22.499Z,24704.00
2018-09-18T10:56:22.423Z,24640.00
2018-09-18T10:57:22.442Z,24384.00
2018-09-18T10:58:22.458Z,24352.00
2018-09-18T10:59:22.474Z,24448.00
2018-09-18T11:00:22.512Z,24384.00
2018-09-18T11:01:22.500Z,24448.00
2018-09-18T11:02:22.613Z,24768.00
2018-09-18T11:03:22.536Z,24832.00
2018-09-18T11:04:22.571Z,24736.00
2018-09-18T11:05:22.562Z,24512.00
2018-09-18T11:06:22.598Z,24864.00
2018-09-18T11:07:22.600Z,24928.00
2018-09-18T11:08:22.635Z,25024.00
2018-09-18T11:09:22.644Z,25408.00
2018-09-18T11:10:22.779Z,25568.00
2018-09-18T11:11:22.696Z,25632.00
2018-09-18T11:12:22.694Z,25152.00
2018-09-18T11:13:22.775Z,25184.00
2018-09-18T11:14:22.720Z,25472.00
2018-09-18T11:15:22.725Z,25792.00
2018-09-18T11:16:22.762Z,25408.00
2018-09-18T11:17:22.756Z,25184.00
2018-09-18T11:18:22.833Z,24672.00
2018-09-18T11:19:22.781Z,17856.00
2018-09-18T11:20:22.798Z,9160.00
2018-09-18T11:21:22.871Z,6852.00
2018-09-18T11:22:22.909Z,6504.00
2018-09-18T11:23:22.846Z,6428.00
2018-09-18T11:24:22.905Z,6308.00
2018-09-18T11:25:22.871Z,6184.00
2018-09-18T11:26:22.882Z,6152.00
2018-09-18T11:27:22.898Z,6180.00
2018-09-18T11:28:22.925Z,6252.00
2018-09-18T11:29:22.928Z,6304.00
2018-09-18T11:30:22.974Z,6224.00
2018-09-18T11:31:23.112Z,6128.00
2018-09-18T11:32:22.965Z,6140.00
2018-09-18T11:33:22.970Z,6148.00
2018-09-18T11:34:22.987Z,6084.00
2018-09-18T11:35:22.999Z,6000.00
2018-09-18T11:36:23.013Z,5992.00
2018-09-18T11:37:23.015Z,5968.00
2018-09-18T11:38:23.025Z,5908.00
2018-09-18T11:39:23.036Z,5860.00
2018-09-18T11:40:23.045Z,5800.00
2018-09-18T11:41:23.059Z,5816.00
2018-09-18T11:42:23.070Z,5856.00
2018-09-18T11:43:23.079Z,5840.00
2018-09-18T11:44:23.087Z,5724.00
2018-09-18T11:45:23.098Z,5740.00
2018-09-18T11:46:23.100Z,5712.00
2018-09-18T11:47:23.109Z,5692.00
2018-09-18T11:48:23.118Z,5624.00
2018-09-18T11:49:23.135Z,5560.00
2018-09-18T11:50:23.138Z,5492.00
2018-09-18T11:51:23.184Z,5444.00
2018-09-18T11:52:23.151Z,5424.00
2018-09-18T11:53:23.162Z,5436.00
2018-09-18T11:54:23.174Z,5436.00
2018-09-18T11:55:23.180Z,5432.00
2018-09-18T11:56:23.188Z,5416.00
2018-09-18T11:57:23.189Z,5372.00
2018-09-18T11:58:23.267Z,5344.00
2018-09-18T11:59:23.210Z,5320.00
2018-09-18T12:00:23.219Z,5284.00
2018-09-18T12:01:23.219Z,5248.00
2018-09-18T12:02:23.227Z,5176.00
2018-09-18T12:03:23.234Z,5128.00
2018-09-18T12:04:23.241Z,5084.00
2018-09-18T12:05:23.253Z,5064.00
2018-09-18T12:06:23.260Z,5064.00
2018-09-18T12:07:23.262Z,5036.00
2018-09-18T12:08:23.269Z,5048.00
2018-09-18T12:09:23.281Z,5008.00
2018-09-18T12:10:23.288Z,4940.00
2018-09-18T12:11:23.324Z,4940.00
2018-09-18T12:12:23.303Z,4920.00
2018-09-18T12:13:23.302Z,4912.00
2018-09-18T12:14:23.311Z,4904.00
2018-09-18T12:15:23.319Z,4900.00
2018-09-18T12:16:23.325Z,4856.00
2018-09-18T12:17:23.335Z,4832.00
2018-09-18T12:18:23.342Z,4792.00
2018-09-18T12:19:23.348Z,4732.00
2018-09-18T12:20:23.355Z,4648.00
2018-09-18T12:21:23.358Z,4628.00
2018-09-18T12:22:23.472Z,4616.00
2018-09-18T12:23:23.374Z,4580.00